Darstellungsparameter: Aktuell verwendete Einstellungen:
Skalierung der Graphiken ... ?
xyx+y,   Skalierungsfaktor:      Skalierung: Modus: x, Faktor: 1
Darstellungszeitraum ... ?
Vom - - bis: - -   Zeitraum: 13.08.2022 - 13.08.2022
Min/Max/Avg-Anzeige ... ?
Zeige MMA aktuell
Zeige MMA Monat
Zeige MMA alles
Zeige --A aktuell
Zeige --A Monat
Zeige --A alles
Keine MMA-Anzeige
MMA:
Average (ber die Originaldaten)
MMA-Basis: 13.08.2022 - 13.08.2022
Quicknavigation für Darstellung... ?
Tage:      1T, 2T, 3T, 5T -1T -2T -3T -5T +1T +2T +3T +5T
Wochen: 1W, 2W, 3W -1W -2W -3W +1W +2W +3W
Monate: 1M, 3M, 6M -1M -3M -6M +1M +3M +6M
Jahre:    1J, 3J, 5J, 10J -1J -3J -5J -10J +1J +3J +5J +10J
Nutze für die Darstellung ... ?
Originaldaten oder Mittelwerte auf ...
Stundenbasis Tagesbasis Wochenbasis
Monatsbasis Jahresbasis      Datenbasis: Original-Daten
Darstellen als:
Statistik (Auto) Statistik J:M      Darstellung:

Der gewünschte Datumsbereich war nicht gültig/verfügbar und wurde korrigiert....
Das angegebene Enddatum (26.06.2025 23:59:59) liegt in der Zukunft.
Das angegebene Startdatum (26.06.2025 00:00:00) liegt in der Zukunft.


Zur Graphik,    zurück zur Übersicht aller Sensoren.
 
Tabellarische Datenbersicht: ?
 
Sensor: Nr:Datum:Temp:Abs-Feuchte:Windchill:Wind:
Aussen-T/F 1 13-08-2022 02:00:00 17.4 C 9.19 g/m*3 17.4 C 0 km/h
2 13-08-2022 02:05:00 17.4 C 9.34 g/m*3 17.4 C 0 km/h
3 13-08-2022 02:10:00 17.4 C 9.34 g/m*3 17.4 C 1.6 km/h
4 13-08-2022 02:15:00 17.3 C 9.28 g/m*3 17.3 C 1.6 km/h
5 13-08-2022 02:20:00 17.2 C 9.08 g/m*3 17.2 C 3.2 km/h
6 13-08-2022 02:25:00 17.2 C 9.23 g/m*3 17.2 C 0 km/h
7 13-08-2022 02:30:00 17.2 C 9.37 g/m*3 17.2 C 3.2 km/h
8 13-08-2022 02:35:00 17.1 C 9.17 g/m*3 17.1 C 1.6 km/h
9 13-08-2022 02:40:00 17 C 9.26 g/m*3 17 C 3.2 km/h
10 13-08-2022 02:45:00 17 C 9.26 g/m*3 17 C 3.2 km/h
11 13-08-2022 02:50:00 16.9 C 9.21 g/m*3 16.9 C 1.6 km/h
12 13-08-2022 02:55:00 16.9 C 9.21 g/m*3 16.9 C 1.6 km/h
13 13-08-2022 03:00:00 16.8 C 9.15 g/m*3 16.8 C 0 km/h
14 13-08-2022 03:05:00 16.8 C 9.15 g/m*3 16.8 C 0 km/h
15 13-08-2022 03:10:00 16.7 C 9.24 g/m*3 16.7 C 0 km/h
16 13-08-2022 03:15:00 16.7 C 9.24 g/m*3 16.7 C 1.6 km/h
17 13-08-2022 03:20:00 16.6 C 9.04 g/m*3 16.6 C 0 km/h
18 13-08-2022 03:25:00 16.6 C 9.04 g/m*3 16.6 C 0 km/h
19 13-08-2022 03:30:00 16.5 C 8.99 g/m*3 16.5 C 0 km/h
20 13-08-2022 03:35:00 16.4 C 9.07 g/m*3 16.4 C 0 km/h
21 13-08-2022 03:40:00 16.4 C 9.07 g/m*3 16.4 C 0 km/h
22 13-08-2022 03:45:00 16.3 C 9.16 g/m*3 16.3 C 0 km/h
23 13-08-2022 03:50:00 16.2 C 8.96 g/m*3 16.2 C 0 km/h
24 13-08-2022 03:55:00 16.2 C 9.24 g/m*3 16.2 C 1.6 km/h
25 13-08-2022 04:00:00 16 C 8.99 g/m*3 16 C 0 km/h
Sensor: Nr:Datum:Temp:Abs-Feuchte:Windchill:Wind:
Aussen-T/F 26 13-08-2022 04:05:00 15.9 C 9.07 g/m*3 15.9 C 0 km/h
27 13-08-2022 04:10:00 15.8 C 9.15 g/m*3 15.8 C 0 km/h
28 13-08-2022 04:15:00 15.8 C 9.15 g/m*3 15.8 C 0 km/h
29 13-08-2022 04:20:00 15.7 C 9.1 g/m*3 15.7 C 0 km/h
30 13-08-2022 04:25:00 15.6 C 9.18 g/m*3 15.6 C 0 km/h
31 13-08-2022 04:30:00 15.4 C 9.2 g/m*3 15.4 C 0 km/h
32 13-08-2022 04:35:00 15.3 C 9.14 g/m*3 15.3 C 0 km/h
33 13-08-2022 04:40:00 15.2 C 9.22 g/m*3 15.2 C 0 km/h
34 13-08-2022 04:45:00 15.1 C 9.16 g/m*3 15.1 C 0 km/h
35 13-08-2022 04:50:00 14.9 C 9.18 g/m*3 14.9 C 0 km/h
36 13-08-2022 04:55:00 14.8 C 9.25 g/m*3 14.8 C 0 km/h
37 13-08-2022 05:00:00 14.7 C 9.19 g/m*3 14.7 C 0 km/h
38 13-08-2022 05:05:00 14.6 C 9.26 g/m*3 14.6 C 0 km/h
39 13-08-2022 05:10:00 14.5 C 9.2 g/m*3 14.5 C 0 km/h
40 13-08-2022 05:15:00 14.4 C 9.27 g/m*3 14.4 C 0 km/h
41 13-08-2022 05:20:00 14.3 C 9.21 g/m*3 14.3 C 0 km/h
42 13-08-2022 05:25:00 14.2 C 9.16 g/m*3 14.2 C 0 km/h
43 13-08-2022 05:30:00 14.1 C 9.22 g/m*3 14.1 C 0 km/h
44 13-08-2022 05:35:00 13.9 C 9.23 g/m*3 13.9 C 0 km/h
45 13-08-2022 05:40:00 13.9 C 9.23 g/m*3 13.9 C 0 km/h
46 13-08-2022 05:45:00 13.8 C 9.17 g/m*3 13.8 C 0 km/h
47 13-08-2022 05:50:00 13.7 C 9.24 g/m*3 13.7 C 0 km/h
48 13-08-2022 05:55:00 13.6 C 9.18 g/m*3 13.6 C 0 km/h
49 13-08-2022 06:00:00 13.6 C 9.18 g/m*3 13.6 C 0 km/h
50 13-08-2022 06:05:00 13.4 C 9.07 g/m*3 13.4 C 0 km/h
Sensor: Nr:Datum:Temp:Abs-Feuchte:Windchill:Wind:
Aussen-T/F 51 13-08-2022 06:10:00 13.4 C 9.18 g/m*3 13.4 C 0 km/h
52 13-08-2022 06:15:00 13.3 C 9.13 g/m*3 13.3 C 0 km/h
53 13-08-2022 06:20:00 13.3 C 9.24 g/m*3 13.3 C 0 km/h
54 13-08-2022 06:25:00 13.2 C 9.19 g/m*3 13.2 C 0 km/h
55 13-08-2022 06:30:00 13.1 C 9.13 g/m*3 13.1 C 0 km/h
56 13-08-2022 06:35:00 13.1 C 9.13 g/m*3 13.1 C 0 km/h
57 13-08-2022 06:40:00 13 C 9.07 g/m*3 13 C 0 km/h
58 13-08-2022 06:45:00 13 C 9.19 g/m*3 13 C 0 km/h
59 13-08-2022 06:50:00 13 C 9.19 g/m*3 13 C 0 km/h
60 13-08-2022 06:55:00 13 C 9.19 g/m*3 13 C 0 km/h
61 13-08-2022 07:00:00 13 C 9.3 g/m*3 13 C 0 km/h
62 13-08-2022 07:05:00 13.1 C 9.36 g/m*3 13.1 C 0 km/h
63 13-08-2022 07:10:00 13.1 C 9.36 g/m*3 13.1 C 0 km/h
64 13-08-2022 07:15:00 13.1 C 9.36 g/m*3 13.1 C 0 km/h
65 13-08-2022 07:20:00 13.1 C 9.36 g/m*3 13.1 C 0 km/h
66 13-08-2022 07:25:00 13.1 C 9.36 g/m*3 13.1 C 0 km/h
67 13-08-2022 07:30:00 13.1 C 9.47 g/m*3 13.1 C 0 km/h
68 13-08-2022 07:35:00 13.2 C 9.53 g/m*3 13.2 C 0 km/h
69 13-08-2022 07:40:00 13.2 C 9.53 g/m*3 13.2 C 0 km/h
70 13-08-2022 07:45:00 13.2 C 9.53 g/m*3 13.2 C 0 km/h
71 13-08-2022 07:50:00 13.3 C 9.7 g/m*3 13.3 C 0 km/h
72 13-08-2022 07:55:00 13.3 C 9.7 g/m*3 13.3 C 0 km/h
73 13-08-2022 08:00:00 13.3 C 9.7 g/m*3 13.3 C 0 km/h
74 13-08-2022 08:05:00 13.4 C 9.76 g/m*3 13.4 C 0 km/h
75 13-08-2022 08:10:00 13.4 C 9.76 g/m*3 13.4 C 0 km/h
Sensor: Nr:Datum:Temp:Abs-Feuchte:Windchill:Wind:
Aussen-T/F 76 13-08-2022 08:15:00 13.5 C 9.83 g/m*3 13.5 C 0 km/h
77 13-08-2022 08:20:00 13.5 C 9.83 g/m*3 13.5 C 0 km/h
78 13-08-2022 08:25:00 13.6 C 9.89 g/m*3 13.6 C 0 km/h
79 13-08-2022 08:30:00 13.7 C 9.95 g/m*3 13.7 C 0 km/h
80 13-08-2022 08:35:00 13.7 C 9.95 g/m*3 13.7 C 0 km/h
81 13-08-2022 08:40:00 13.8 C 10.01 g/m*3 13.8 C 0 km/h
82 13-08-2022 08:45:00 13.9 C 9.95 g/m*3 13.9 C 0 km/h
83 13-08-2022 08:50:00 13.9 C 9.95 g/m*3 13.9 C 0 km/h
84 13-08-2022 08:55:00 14.1 C 10.07 g/m*3 14.1 C 0 km/h
85 13-08-2022 09:00:00 14.2 C 10.14 g/m*3 14.2 C 0 km/h
86 13-08-2022 09:05:00 14.3 C 10.2 g/m*3 14.3 C 0 km/h
87 13-08-2022 09:10:00 14.5 C 10.32 g/m*3 14.5 C 0 km/h

Legende:
   Min
   Max


Maximal/Minimal-Werte vom 13.08.2022 - 13.08.2022

Sensor Min Max Avg
Temp
(Aussen-T/F)
13 °C
13-08-2022  06:40:00
17.4 °C
13-08-2022  02:00:00
14.74 °C
Abs-Feuchte
(Aussen-T/F)
8.96 g/m*3
13-08-2022  03:50:00
10.32 g/m*3
13-08-2022  09:10:00
9.24 g/m*3
Windchill
(Aussen-T/F)
13 C
13-08-2022  06:40:00
17.4 C
13-08-2022  02:00:00
14.57 C

Die Daten stammen von einer Davis Vantage Pro 2 Wetter-Station und werden unter Linux mit der Software wview2wettercgi und aufbereitet. Alle Angaben erfolgen ohne Gewähr für ihre Vollständigkeit oder Richtigkeit.
Kontakt: Rainer Krienke krienke@uni-koblenz.de . Meine Webseiten an der Uni Koblenz oder privat.
Version: $Revision: 0.78 $